createdAt,value
2023-04-10T00:16:37.061Z,86.50
2023-04-10T00:19:22.431Z,86.59
2023-04-10T00:22:07.828Z,86.92
2023-04-10T00:24:53.818Z,87.20
2023-04-10T00:27:39.218Z,87.35
2023-04-10T00:30:24.722Z,87.74
2023-04-10T00:33:09.977Z,87.80
2023-04-10T00:39:12.806Z,87.47
2023-04-10T00:41:59.586Z,87.33
2023-04-10T00:44:45.352Z,86.59
2023-04-10T00:47:31.484Z,86.86
2023-04-10T00:50:17.317Z,86.62
2023-04-10T00:53:10.009Z,86.24
2023-04-10T00:55:56.504Z,86.79
2023-04-10T00:58:41.690Z,86.49
2023-04-10T01:01:26.906Z,86.35
2023-04-10T01:04:14.538Z,86.15
2023-04-10T01:07:24.494Z,86.22
2023-04-10T01:10:20.791Z,85.38
2023-04-10T01:13:17.746Z,85.44
2023-04-10T01:16:31.329Z,85.72
2023-04-10T01:19:40.673Z,85.82
2023-04-10T01:22:33.992Z,85.94
2023-04-10T01:25:51.825Z,85.69
2023-04-10T01:28:56.091Z,85.92
2023-04-10T01:32:16.976Z,85.34
2023-04-10T01:35:07.436Z,85.91
2023-04-10T01:37:53.616Z,85.84
2023-04-10T01:40:39.752Z,85.74
2023-04-10T01:43:26.989Z,86.13
2023-04-10T01:46:13.923Z,85.80
2023-04-10T01:49:01.857Z,85.61
2023-04-10T01:51:49.232Z,85.53
2023-04-10T01:54:35.732Z,85.93
2023-04-10T01:57:22.075Z,85.88
2023-04-10T02:00:14.037Z,85.81
2023-04-10T02:03:02.538Z,85.82
2023-04-10T02:06:27.332Z,85.66
2023-04-10T02:09:26.592Z,85.69
2023-04-10T02:12:36.250Z,85.81
2023-04-10T02:15:23.559Z,85.82
2023-04-10T02:18:11.032Z,85.40
2023-04-10T02:20:57.155Z,85.72
2023-04-10T02:23:42.318Z,85.81
2023-04-10T02:26:27.467Z,85.98
2023-04-10T02:29:12.925Z,86.29
2023-04-10T02:31:58.208Z,86.13
2023-04-10T02:34:43.781Z,85.97
2023-04-10T02:37:29.723Z,86.02
2023-04-10T02:40:17.228Z,86.36
2023-04-10T02:43:14.324Z,86.17
2023-04-10T02:46:00.000Z,85.77
2023-04-10T02:48:48.974Z,86.18
2023-04-10T02:51:37.966Z,86.64
2023-04-10T02:54:23.969Z,86.46
2023-04-10T02:57:09.081Z,86.62
2023-04-10T02:59:54.780Z,86.43
2023-04-10T03:02:43.036Z,86.38
2023-04-10T03:05:34.728Z,87.35
2023-04-10T03:08:21.042Z,87.28
2023-04-10T03:11:07.737Z,87.12
2023-04-10T03:13:53.285Z,87.15
2023-04-10T03:16:38.566Z,87.21
2023-04-10T03:19:26.527Z,88.19
2023-04-10T03:22:12.107Z,87.59
2023-04-10T03:24:59.053Z,87.89
2023-04-10T03:27:44.287Z,88.09
2023-04-10T03:30:29.573Z,88.17
2023-04-10T03:33:14.729Z,87.76
2023-04-10T03:36:00.261Z,88.08
2023-04-10T03:38:45.643Z,89.16
2023-04-10T03:41:31.216Z,88.85
2023-04-10T03:44:18.954Z,88.91
2023-04-10T03:47:04.361Z,89.10
2023-04-10T03:49:49.729Z,89.33
2023-04-10T03:52:35.448Z,89.12
2023-04-10T03:55:21.321Z,89.47
2023-04-10T03:58:08.253Z,89.46
2023-04-10T04:00:54.547Z,89.97
2023-04-10T04:03:59.912Z,90.11
2023-04-10T04:07:14.023Z,89.64
2023-04-10T04:10:20.280Z,90.14
2023-04-10T04:13:32.825Z,90.21
2023-04-10T04:16:25.310Z,90.24
2023-04-10T04:19:23.525Z,90.62
2023-04-10T04:22:31.556Z,89.62
2023-04-10T04:25:18.155Z,89.94
2023-04-10T04:28:37.272Z,90.33
2023-04-10T04:31:43.051Z,89.94
2023-04-10T04:34:48.715Z,89.53
2023-04-10T04:37:52.671Z,89.61
2023-04-10T04:41:01.788Z,89.30
2023-04-10T04:44:03.464Z,89.00
2023-04-10T04:47:07.354Z,89.02
2023-04-10T04:50:24.603Z,89.12
2023-04-10T04:53:22.769Z,88.31
2023-04-10T04:56:25.586Z,88.60
2023-04-10T04:59:38.140Z,88.37
2023-04-10T05:02:33.148Z,88.40
2023-04-10T05:05:24.531Z,87.83
2023-04-10T05:08:20.922Z,88.02
2023-04-10T05:11:24.922Z,87.38
2023-04-10T05:14:28.767Z,87.62
2023-04-10T05:17:43.198Z,86.94
2023-04-10T05:20:58.627Z,87.13
2023-04-10T05:24:02.771Z,86.13
2023-04-10T05:27:12.255Z,85.90
2023-04-10T05:30:16.586Z,85.21
2023-04-10T05:33:20.125Z,84.72
2023-04-10T05:36:32.808Z,84.31
2023-04-10T05:39:40.853Z,84.20
2023-04-10T05:42:58.370Z,83.97
2023-04-10T05:45:51.768Z,83.39
2023-04-10T05:49:04.420Z,82.88
2023-04-10T05:52:13.143Z,82.59
2023-04-10T05:55:01.292Z,82.21
2023-04-10T05:58:06.754Z,82.10
2023-04-10T06:01:11.272Z,81.90
2023-04-10T06:04:03.899Z,81.40
2023-04-10T06:06:49.689Z,81.03
2023-04-10T06:09:35.284Z,80.49
2023-04-10T06:12:24.629Z,79.54
2023-04-10T06:15:11.386Z,78.96
2023-04-10T06:17:56.743Z,78.02
2023-04-10T06:20:41.846Z,78.08
2023-04-10T06:23:28.534Z,77.60
2023-04-10T06:26:13.935Z,77.49
2023-04-10T06:29:00.070Z,77.30
2023-04-10T06:31:45.646Z,77.37
2023-04-10T06:34:31.660Z,78.11
2023-04-10T06:37:29.105Z,78.45
2023-04-10T06:40:15.474Z,78.53
2023-04-10T06:43:01.300Z,78.12
2023-04-10T06:45:52.788Z,78.51
2023-04-10T06:48:38.144Z,77.46
2023-04-10T06:51:23.505Z,77.67
2023-04-10T06:54:08.955Z,76.69
2023-04-10T06:56:58.660Z,77.39
2023-04-10T06:59:43.930Z,77.02
2023-04-10T07:02:29.534Z,77.09
2023-04-10T07:05:15.901Z,76.62
2023-04-10T07:08:01.452Z,75.95
2023-04-10T07:10:46.957Z,75.76
2023-04-10T07:13:32.156Z,76.11
2023-04-10T07:16:17.441Z,75.75
2023-04-10T07:19:04.581Z,75.61
2023-04-10T07:21:50.213Z,75.22
2023-04-10T07:24:35.686Z,74.92
2023-04-10T07:27:20.862Z,75.05
2023-04-10T07:30:06.712Z,74.60
2023-04-10T07:32:52.065Z,73.64
2023-04-10T07:35:37.383Z,72.21
2023-04-10T07:38:24.565Z,72.13
2023-04-10T07:41:11.976Z,71.97
2023-04-10T07:43:57.215Z,71.57
2023-04-10T07:46:42.951Z,70.96
2023-04-10T07:49:28.064Z,71.15
2023-04-10T07:52:13.724Z,71.45
2023-04-10T07:55:02.346Z,71.21
2023-04-10T07:57:47.348Z,70.44
2023-04-10T08:00:33.418Z,69.15
2023-04-10T08:03:19.129Z,69.29
2023-04-10T08:06:11.038Z,68.83
2023-04-10T08:08:56.508Z,68.32
2023-04-10T08:11:41.868Z,67.52
2023-04-10T08:14:27.606Z,67.81
2023-04-10T08:17:14.800Z,67.51
2023-04-10T08:20:00.407Z,66.04
2023-04-10T08:22:46.078Z,65.53
2023-04-10T08:25:31.520Z,65.07
2023-04-10T08:28:17.214Z,64.65
2023-04-10T08:31:02.485Z,64.19
2023-04-10T08:33:48.797Z,63.28
2023-04-10T08:36:34.474Z,63.89
2023-04-10T08:39:19.778Z,62.78
2023-04-10T08:42:07.311Z,62.56
2023-04-10T08:44:53.080Z,62.56
2023-04-10T08:47:41.050Z,62.82
2023-04-10T08:50:30.706Z,61.29
2023-04-10T08:53:16.496Z,61.35
2023-04-10T08:56:04.949Z,60.67
2023-04-10T08:58:51.981Z,59.45
2023-04-10T09:01:39.759Z,58.92
2023-04-10T09:04:26.139Z,58.90
2023-04-10T09:07:11.344Z,66.31
2023-04-10T09:09:56.694Z,66.54
2023-04-10T09:12:47.250Z,59.29
2023-04-10T09:15:56.095Z,58.15
2023-04-10T09:18:49.094Z,56.61
2023-04-10T09:21:34.631Z,57.58
2023-04-10T09:24:20.192Z,55.72
2023-04-10T09:27:07.418Z,61.50
2023-04-10T09:29:52.690Z,53.88
2023-04-10T09:32:46.852Z,53.02
2023-04-10T09:35:39.013Z,51.54
2023-04-10T09:38:25.711Z,51.15
2023-04-10T09:41:13.048Z,52.25
2023-04-10T09:44:11.348Z,52.86
2023-04-10T09:46:57.178Z,54.54
2023-04-10T09:49:52.172Z,55.45
2023-04-10T09:52:38.273Z,54.28
2023-04-10T09:55:23.905Z,54.40
2023-04-10T09:58:10.616Z,54.05
2023-04-10T10:00:56.032Z,53.61
2023-04-10T10:03:42.819Z,53.28
2023-04-10T10:06:32.584Z,53.76
2023-04-10T10:09:18.007Z,53.97
2023-04-10T10:12:04.411Z,54.15
2023-04-10T10:15:02.575Z,53.50
2023-04-10T10:18:14.557Z,52.74
2023-04-10T10:21:01.175Z,52.36
2023-04-10T10:23:53.800Z,52.25
2023-04-10T10:26:40.212Z,52.25
2023-04-10T10:29:26.002Z,51.65
2023-04-10T10:32:13.207Z,51.87
2023-04-10T10:35:01.307Z,52.00
2023-04-10T10:37:47.758Z,52.29
2023-04-10T10:40:49.182Z,52.33
2023-04-10T10:43:53.192Z,52.39
2023-04-10T10:46:52.148Z,52.11
2023-04-10T10:49:54.915Z,51.85
2023-04-10T10:52:45.251Z,52.05
2023-04-10T10:55:31.726Z,52.20
2023-04-10T10:58:19.599Z,52.26
2023-04-10T11:01:09.284Z,52.16
2023-04-10T11:03:55.924Z,51.97
2023-04-10T11:06:53.735Z,52.35
2023-04-10T11:09:53.478Z,52.13
2023-04-10T11:13:18.195Z,51.67
2023-04-10T11:16:05.618Z,51.21
2023-04-10T11:19:06.116Z,51.71
2023-04-10T11:22:05.265Z,50.74
2023-04-10T11:25:02.303Z,49.82
2023-04-10T11:27:51.801Z,49.87
2023-04-10T11:30:37.551Z,50.21
2023-04-10T11:33:23.100Z,50.15
2023-04-10T11:36:08.452Z,50.30
2023-04-10T11:39:08.893Z,51.21
2023-04-10T11:41:56.508Z,49.86
2023-04-10T11:44:43.209Z,48.71
2023-04-10T11:47:28.465Z,49.24
2023-04-10T11:50:14.527Z,48.74
2023-04-10T11:52:59.658Z,49.07
2023-04-10T11:55:45.327Z,49.87
2023-04-10T11:58:31.887Z,49.63
2023-04-10T12:01:21.667Z,49.55
2023-04-10T12:04:21.360Z,49.00
2023-04-10T12:07:06.732Z,47.37
2023-04-10T12:09:58.667Z,47.13
2023-04-10T12:12:43.641Z,46.46
2023-04-10T12:15:30.691Z,46.16
2023-04-10T12:18:16.457Z,47.08
2023-04-10T12:21:02.519Z,47.21
2023-04-10T12:23:47.974Z,47.45
2023-04-10T12:26:33.298Z,46.35
2023-04-10T12:29:19.015Z,45.43
2023-04-10T12:32:09.369Z,45.95
2023-04-10T12:35:01.294Z,46.44
2023-04-10T12:37:55.893Z,45.86
2023-04-10T12:41:00.919Z,44.07
2023-04-10T12:43:45.950Z,43.79
2023-04-10T12:46:32.386Z,43.68
2023-04-10T12:49:21.212Z,40.20
2023-04-10T12:52:06.725Z,40.67
2023-04-10T12:54:52.056Z,41.21
2023-04-10T12:57:38.174Z,40.63
2023-04-10T13:00:24.071Z,40.89
2023-04-10T13:03:09.648Z,40.23
2023-04-10T13:05:55.075Z,41.31
2023-04-10T13:08:40.467Z,42.12
2023-04-10T13:11:25.978Z,42.26
2023-04-10T13:14:11.186Z,42.37
2023-04-10T13:16:56.476Z,42.42
2023-04-10T13:19:41.563Z,43.93
2023-04-10T13:22:27.174Z,44.25
2023-04-10T13:25:12.573Z,44.05
2023-04-10T13:27:58.014Z,43.71
2023-04-10T13:30:43.462Z,44.34
2023-04-10T13:33:28.702Z,43.82
2023-04-10T13:36:14.978Z,43.82
2023-04-10T13:39:00.812Z,43.76
2023-04-10T13:41:46.143Z,44.51
2023-04-10T13:44:32.199Z,44.70
2023-04-10T13:47:17.152Z,44.90
2023-04-10T13:50:02.798Z,44.98
2023-04-10T13:52:48.472Z,44.82
2023-04-10T13:55:33.419Z,45.20
2023-04-10T13:58:18.889Z,44.24
2023-04-10T14:01:06.970Z,43.94
2023-04-10T14:03:52.128Z,44.19
2023-04-10T14:06:37.433Z,44.21
2023-04-10T14:09:23.300Z,43.92
2023-04-10T14:12:08.783Z,44.04
2023-04-10T14:14:53.864Z,44.03
2023-04-10T14:17:39.154Z,44.17
2023-04-10T14:20:24.190Z,44.25
2023-04-10T14:23:09.865Z,44.01
2023-04-10T14:25:55.381Z,44.70
2023-04-10T14:28:40.422Z,44.52
2023-04-10T14:31:27.202Z,44.23
2023-04-10T14:34:14.525Z,44.57
2023-04-10T14:37:01.984Z,44.74
2023-04-10T14:39:47.113Z,44.16
2023-04-10T14:42:33.180Z,44.10
2023-04-10T14:45:19.595Z,44.25
2023-04-10T14:48:04.962Z,44.86
2023-04-10T14:50:50.570Z,45.31
2023-04-10T14:53:35.948Z,45.47
2023-04-10T14:56:21.439Z,46.35
2023-04-10T14:59:06.945Z,45.87
2023-04-10T15:01:53.776Z,45.96
2023-04-10T15:04:39.032Z,45.94
2023-04-10T15:07:24.926Z,46.46
2023-04-10T15:10:13.082Z,47.25
2023-04-10T15:12:58.407Z,46.91
2023-04-10T15:15:44.808Z,46.71
2023-04-10T15:18:30.330Z,46.51
2023-04-10T15:21:16.947Z,46.33
2023-04-10T15:24:02.596Z,45.66
2023-04-10T15:26:47.971Z,45.85
2023-04-10T15:29:42.784Z,45.16
2023-04-10T15:32:27.969Z,45.02
2023-04-10T15:35:13.193Z,44.44
2023-04-10T15:37:58.711Z,44.41
2023-04-10T15:40:43.709Z,44.46
2023-04-10T15:43:29.018Z,43.57
2023-04-10T15:46:15.763Z,43.68
2023-04-10T15:49:01.061Z,43.37
2023-04-10T15:51:46.330Z,43.52
2023-04-10T15:54:33.759Z,42.82
2023-04-10T15:57:19.152Z,43.18
2023-04-10T16:00:05.067Z,42.77
2023-04-10T16:02:50.878Z,42.92
2023-04-10T16:05:36.461Z,42.35
2023-04-10T16:08:24.586Z,42.76
2023-04-10T16:11:09.772Z,42.85
2023-04-10T16:13:55.566Z,42.63
2023-04-10T16:16:40.968Z,42.75
2023-04-10T16:19:29.348Z,42.63
2023-04-10T16:22:14.474Z,42.61
2023-04-10T16:25:00.388Z,42.52
2023-04-10T16:27:45.571Z,42.92
2023-04-10T16:30:30.956Z,42.66
2023-04-10T16:33:16.307Z,43.38
2023-04-10T16:36:04.662Z,43.10
2023-04-10T16:38:50.301Z,43.68
2023-04-10T16:41:35.913Z,43.07
2023-04-10T16:44:21.270Z,43.25
2023-04-10T16:47:07.013Z,43.71
2023-04-10T16:49:52.585Z,43.72
2023-04-10T16:52:37.816Z,44.02
2023-04-10T16:55:23.111Z,43.80
2023-04-10T16:58:08.524Z,43.88
2023-04-10T17:00:53.881Z,43.87
2023-04-10T17:03:39.156Z,44.02
2023-04-10T17:06:24.540Z,44.22
2023-04-10T17:09:09.874Z,44.22
2023-04-10T17:11:55.859Z,43.98
2023-04-10T17:14:41.288Z,44.05
2023-04-10T17:17:26.444Z,44.23
2023-04-10T17:20:12.744Z,44.52
2023-04-10T17:22:57.888Z,44.83
2023-04-10T17:25:43.310Z,45.31
2023-04-10T17:28:28.798Z,45.23
2023-04-10T17:31:15.035Z,45.67
2023-04-10T17:34:00.700Z,45.70
2023-04-10T17:36:45.956Z,45.80
2023-04-10T17:39:31.453Z,46.03
2023-04-10T17:42:17.089Z,45.81
2023-04-10T17:45:02.312Z,46.06
2023-04-10T17:47:47.673Z,46.05
2023-04-10T17:50:35.639Z,46.22
2023-04-10T17:53:20.806Z,46.00
2023-04-10T17:56:06.456Z,46.37
2023-04-10T17:58:54.578Z,46.28
2023-04-10T18:01:40.265Z,46.65
2023-04-10T18:04:25.888Z,47.02
2023-04-10T18:07:10.949Z,47.24
2023-04-10T18:09:56.420Z,46.88
2023-04-10T18:12:41.830Z,47.38
2023-04-10T18:15:27.944Z,47.27
2023-04-10T18:18:13.442Z,46.96
2023-04-10T18:21:02.488Z,46.76
2023-04-10T18:23:47.772Z,46.78
2023-04-10T18:26:34.767Z,46.89
2023-04-10T18:29:19.906Z,47.13
2023-04-10T18:32:07.470Z,47.21
2023-04-10T18:34:52.830Z,46.84
2023-04-10T18:37:40.582Z,47.52
2023-04-10T18:40:26.357Z,47.47
2023-04-10T18:43:11.843Z,47.36
2023-04-10T18:45:57.077Z,47.67
2023-04-10T18:48:43.313Z,47.28
2023-04-10T18:51:29.403Z,47.88
2023-04-10T18:54:14.653Z,48.09
2023-04-10T18:57:00.208Z,47.90
2023-04-10T18:59:45.444Z,48.25
2023-04-10T19:02:31.114Z,48.25
2023-04-10T19:05:16.703Z,48.61
2023-04-10T19:08:04.642Z,48.74
2023-04-10T19:10:50.451Z,48.76
2023-04-10T19:13:35.683Z,48.61
2023-04-10T19:16:21.345Z,48.46
2023-04-10T19:19:06.549Z,48.64
2023-04-10T19:21:51.597Z,48.51
2023-04-10T19:24:37.073Z,48.54
2023-04-10T19:27:22.327Z,48.17
2023-04-10T19:30:08.295Z,48.60
2023-04-10T19:32:53.653Z,48.47
2023-04-10T19:35:39.360Z,47.72
2023-04-10T19:38:24.650Z,48.18
2023-04-10T19:41:14.163Z,47.97
2023-04-10T19:43:59.709Z,47.75
2023-04-10T19:46:45.026Z,47.91
2023-04-10T19:49:34.563Z,47.59
2023-04-10T19:52:19.957Z,47.45
2023-04-10T19:55:05.903Z,47.89
2023-04-10T19:57:51.535Z,47.70
2023-04-10T20:00:36.883Z,47.35
2023-04-10T20:03:26.733Z,47.48
2023-04-10T20:06:11.872Z,47.62
2023-04-10T20:08:57.385Z,48.08
2023-04-10T20:11:43.101Z,47.51
2023-04-10T20:14:29.545Z,47.71
2023-04-10T20:17:16.449Z,47.42
2023-04-10T20:20:02.243Z,47.85
2023-04-10T20:22:47.277Z,47.72
2023-04-10T20:25:32.827Z,47.70
2023-04-10T20:28:18.443Z,47.33
2023-04-10T20:31:04.115Z,47.14
2023-04-10T20:33:49.672Z,47.08
2023-04-10T20:36:35.492Z,47.27
2023-04-10T20:39:22.560Z,46.96
2023-04-10T20:42:07.855Z,46.28
2023-04-10T20:44:53.948Z,46.43
2023-04-10T20:47:39.184Z,46.54
2023-04-10T20:50:24.552Z,46.57
2023-04-10T20:53:10.027Z,46.74
2023-04-10T20:55:55.328Z,46.96
2023-04-10T20:58:40.620Z,46.44
2023-04-10T21:01:25.992Z,46.27
2023-04-10T21:04:11.283Z,46.55
2023-04-10T21:06:56.564Z,46.19
2023-04-10T21:09:41.648Z,46.10
2023-04-10T21:12:27.013Z,46.25
2023-04-10T21:15:12.593Z,46.45
2023-04-10T21:17:57.717Z,46.46
2023-04-10T21:20:46.103Z,46.60
2023-04-10T21:23:31.575Z,46.53
2023-04-10T21:26:16.758Z,46.34
2023-04-10T21:29:02.402Z,46.27
2023-04-10T21:31:49.389Z,46.45
2023-04-10T21:34:36.048Z,46.22
2023-04-10T21:37:21.418Z,46.63
2023-04-10T21:40:07.650Z,46.27
2023-04-10T21:42:54.285Z,45.98
2023-04-10T21:45:41.571Z,46.17
2023-04-10T21:48:26.663Z,46.65
2023-04-10T21:51:12.107Z,46.60
2023-04-10T21:53:57.551Z,46.67
2023-04-10T21:56:43.206Z,46.51
2023-04-10T21:59:31.562Z,46.59
2023-04-10T22:02:16.810Z,46.82
2023-04-10T22:05:02.292Z,46.97
2023-04-10T22:07:47.386Z,46.87
2023-04-10T22:10:34.393Z,47.34
2023-04-10T22:13:30.114Z,47.22
2023-04-10T22:16:16.469Z,47.76
2023-04-10T22:19:01.689Z,47.56
2023-04-10T22:21:46.927Z,48.09
2023-04-10T22:24:33.921Z,48.01
2023-04-10T22:27:20.695Z,48.38
2023-04-10T22:30:09.629Z,47.78
2023-04-10T22:33:02.107Z,48.52
2023-04-10T22:35:47.998Z,48.88
2023-04-10T22:38:53.935Z,48.75
2023-04-10T22:41:45.198Z,48.76
2023-04-10T22:44:30.326Z,48.78
2023-04-10T22:47:15.704Z,48.90
2023-04-10T22:50:00.995Z,49.02
2023-04-10T22:52:46.762Z,49.34
2023-04-10T22:55:32.022Z,49.27
2023-04-10T22:58:17.370Z,49.44
2023-04-10T23:01:02.779Z,49.54
2023-04-10T23:03:48.619Z,49.62
2023-04-10T23:06:33.798Z,49.82
2023-04-10T23:09:19.461Z,49.63
2023-04-10T23:12:04.681Z,49.95
2023-04-10T23:14:49.871Z,50.22
2023-04-10T23:17:35.182Z,49.96
2023-04-10T23:20:20.621Z,50.35
2023-04-10T23:23:06.071Z,50.24
2023-04-10T23:26:00.256Z,50.11
2023-04-10T23:28:45.811Z,50.19
2023-04-10T23:31:30.937Z,50.12
2023-04-10T23:34:16.412Z,50.28
2023-04-10T23:37:01.808Z,50.29
2023-04-10T23:39:46.907Z,50.52
2023-04-10T23:42:32.133Z,50.68
2023-04-10T23:45:17.284Z,50.50
2023-04-10T23:48:02.509Z,50.73
2023-04-10T23:50:47.560Z,50.67
2023-04-10T23:53:33.502Z,51.07
2023-04-10T23:56:19.532Z,50.94
2023-04-10T23:59:05.707Z,51.00
